WAWW/KDI METAR and TAF weather

Enter ICAO airport designator
Station Type Date Time Source
WAWW METAR UTC NOAA

Error!


Station Type Date Time Source
WAWW Decoded METAR UTC NOAA

Error!

Station Type Date Time Source
WAWW TAF 2021/07/28 18:00 UTC NOAA

TAF WAWW 281700Z 2818/2906 00000KT 8000 SCT017
BECMG 2821/2823 28008KT

Example: see airport list